createdAt,value
2022-07-28T00:00:31.222Z,98694.06
2022-07-28T00:05:36.574Z,98702.91
2022-07-28T00:10:39.959Z,98712.09
2022-07-28T00:15:43.292Z,98712.09
2022-07-28T00:20:48.120Z,98721.03
2022-07-28T00:25:51.370Z,98714.91
2022-07-28T00:30:56.376Z,98699.41
2022-07-28T00:36:01.148Z,98697.38
2022-07-28T00:41:14.160Z,98701.88
2022-07-28T00:46:19.680Z,98704.63
2022-07-28T00:51:27.864Z,98702.72
2022-07-28T00:56:31.828Z,98705.59
2022-07-28T01:01:36.022Z,98675.78
2022-07-28T01:06:49.025Z,98703.75
2022-07-28T01:11:59.444Z,98695.63
2022-07-28T01:17:09.132Z,98699.28
2022-07-28T01:22:18.699Z,98691.78
2022-07-28T01:27:37.102Z,98689.47
2022-07-28T01:32:45.408Z,98699.69
2022-07-28T01:37:53.433Z,98693.59
2022-07-28T01:43:00.437Z,98689.22
2022-07-28T01:48:06.912Z,98696.06
2022-07-28T01:53:11.942Z,98695.03
2022-07-28T01:58:18.249Z,98698.81
2022-07-28T02:03:25.456Z,98690.97
2022-07-28T02:08:29.773Z,98689.53
2022-07-28T02:13:35.206Z,98697.91
2022-07-28T02:18:41.368Z,98700.13
2022-07-28T02:23:48.828Z,98695.06
2022-07-28T02:28:55.497Z,98700.50
2022-07-28T02:34:04.377Z,98703.50
2022-07-28T02:39:17.097Z,98706.78
2022-07-28T02:44:27.588Z,98700.50
2022-07-28T02:49:34.930Z,98700.22
2022-07-28T02:54:39.083Z,98706.75
2022-07-28T02:59:44.091Z,98703.66
2022-07-28T03:05:00.916Z,98707.16
2022-07-28T03:10:05.366Z,98717.25
2022-07-28T03:15:09.670Z,98707.63
2022-07-28T03:20:16.020Z,98713.84
2022-07-28T03:25:27.795Z,98701.50
2022-07-28T03:30:43.549Z,98702.69
2022-07-28T03:35:52.952Z,98704.34
2022-07-28T03:40:58.855Z,98711.59
2022-07-28T03:46:02.404Z,98717.03
2022-07-28T03:51:07.162Z,98719.28
2022-07-28T03:56:10.566Z,98714.38
2022-07-28T04:01:14.122Z,98713.56
2022-07-28T04:06:19.294Z,98711.84
2022-07-28T04:11:23.354Z,98726.09
2022-07-28T04:16:26.846Z,98719.94
2022-07-28T04:21:31.682Z,98715.91
2022-07-28T04:26:35.012Z,98715.72
2022-07-28T04:31:38.566Z,98724.78
2022-07-28T04:36:43.746Z,98734.31
2022-07-28T04:41:47.067Z,98731.34
2022-07-28T04:46:50.426Z,98723.75
2022-07-28T04:51:55.159Z,98725.63
2022-07-28T04:57:00.808Z,98729.38
2022-07-28T05:02:09.082Z,98725.31
2022-07-28T05:07:14.073Z,98729.72
2022-07-28T05:12:17.447Z,98736.09
2022-07-28T05:17:20.768Z,98742.59
2022-07-28T05:22:25.513Z,98731.34
2022-07-28T05:27:28.785Z,98734.88
2022-07-28T05:32:32.084Z,98732.34
2022-07-28T05:37:37.770Z,98745.84
2022-07-28T05:42:41.118Z,98734.53
2022-07-28T05:47:46.421Z,98743.94
2022-07-28T05:52:51.905Z,98738.19
2022-07-28T05:57:55.347Z,98731.22
2022-07-28T06:03:02.168Z,98738.66
2022-07-28T06:08:10.621Z,98736.22
2022-07-28T06:13:16.413Z,98734.63
2022-07-28T06:18:19.974Z,98738.53
2022-07-28T06:23:25.157Z,98720.63
2022-07-28T06:28:28.465Z,98717.38
2022-07-28T06:33:31.917Z,98710.94
2022-07-28T06:38:36.774Z,98717.78
2022-07-28T06:43:40.253Z,98717.69
2022-07-28T06:48:46.073Z,98722.13
2022-07-28T06:53:50.897Z,98723.69
2022-07-28T06:58:54.215Z,98729.53
2022-07-28T07:03:57.894Z,98724.41
2022-07-28T07:09:03.001Z,98729.66
2022-07-28T07:14:06.335Z,98724.97
2022-07-28T07:19:15.452Z,98719.91
2022-07-28T07:24:20.530Z,98715.97
2022-07-28T07:29:25.823Z,98724.94
2022-07-28T07:34:33.860Z,98725.25
2022-07-28T07:39:38.629Z,98716.88
2022-07-28T07:44:42.134Z,98722.53
2022-07-28T07:49:53.801Z,98713.72
2022-07-28T07:54:58.665Z,98713.13
2022-07-28T08:00:02.122Z,98706.00
2022-07-28T08:05:07.010Z,98689.13
2022-07-28T08:10:13.120Z,98681.44
2022-07-28T08:15:16.626Z,98682.63
2022-07-28T08:20:20.126Z,98678.75
2022-07-28T08:25:25.675Z,98661.09
2022-07-28T08:30:32.736Z,98642.59
2022-07-28T08:35:36.663Z,98648.38
2022-07-28T08:40:43.580Z,98651.63
2022-07-28T08:45:52.543Z,98644.84
2022-07-28T08:51:01.803Z,98638.72
2022-07-28T08:56:07.931Z,98640.72
2022-07-28T09:01:11.664Z,98640.38
2022-07-28T09:06:15.434Z,98644.94
2022-07-28T09:11:20.214Z,98639.59
2022-07-28T09:16:23.845Z,98648.13
2022-07-28T09:21:27.308Z,98653.22
2022-07-28T09:26:32.124Z,98637.28
2022-07-28T09:31:35.531Z,98625.63
2022-07-28T09:36:41.569Z,98612.84
2022-07-28T09:41:50.695Z,98606.28
2022-07-28T09:46:54.541Z,98594.13
2022-07-28T09:52:03.204Z,98594.81
2022-07-28T09:57:11.863Z,98600.53
2022-07-28T10:02:25.490Z,98604.56
2022-07-28T10:07:31.319Z,98622.56
2022-07-28T10:12:38.340Z,98629.31
2022-07-28T10:17:43.315Z,98633.13
2022-07-28T10:22:47.297Z,98623.63
2022-07-28T10:27:52.675Z,98605.34
2022-07-28T10:32:58.387Z,98604.09
2022-07-28T10:38:05.659Z,98600.28
2022-07-28T10:43:10.563Z,98606.53
2022-07-28T10:48:14.306Z,98601.69
2022-07-28T10:53:29.203Z,98608.03
2022-07-28T10:58:45.322Z,98613.28
2022-07-28T11:03:49.604Z,98602.41
2022-07-28T11:08:53.851Z,98626.38
2022-07-28T11:14:38.993Z,98633.69
2022-07-28T11:25:22.413Z,98635.72
2022-07-28T11:30:53.719Z,98633.03
2022-07-28T11:36:02.164Z,98627.78
2022-07-28T11:41:30.119Z,98612.75
2022-07-28T11:46:39.934Z,98615.88
2022-07-28T11:52:03.497Z,98630.03
2022-07-28T11:57:09.954Z,98618.38
2022-07-28T12:02:19.029Z,98620.75
2022-07-28T12:07:29.308Z,98608.25
2022-07-28T12:12:34.667Z,98601.19
2022-07-28T12:17:40.647Z,98596.47
2022-07-28T12:22:56.664Z,98574.19
2022-07-28T12:28:14.237Z,98571.69
2022-07-28T12:33:26.182Z,98582.72
2022-07-28T12:38:34.580Z,98604.97
2022-07-28T12:43:38.232Z,98590.72
2022-07-28T12:48:43.145Z,98569.50
2022-07-28T12:53:52.476Z,98545.91
2022-07-28T12:59:06.413Z,98617.72
2022-07-28T13:04:11.404Z,98722.06
2022-07-28T13:09:29.940Z,98791.25
2022-07-28T13:14:43.929Z,98772.72
2022-07-28T13:19:49.622Z,98757.72
2022-07-28T13:24:53.254Z,98786.19
2022-07-28T13:29:57.354Z,98786.09
2022-07-28T13:35:03.554Z,98802.09
2022-07-28T13:40:08.172Z,98792.53
2022-07-28T13:45:12.292Z,98783.06
2022-07-28T13:50:22.056Z,98792.13
2022-07-28T13:55:27.577Z,98802.41
2022-07-28T14:00:31.320Z,98817.56
2022-07-28T14:05:36.788Z,98812.69
2022-07-28T14:10:41.981Z,98823.31
2022-07-28T14:15:51.945Z,98806.47
2022-07-28T14:21:09.323Z,98805.97
2022-07-28T14:26:34.870Z,98794.88
2022-07-28T14:31:37.633Z,98776.59
2022-07-28T14:36:42.489Z,98771.50
2022-07-28T14:41:45.868Z,98776.53
2022-07-28T14:46:52.501Z,98785.06
2022-07-28T14:51:58.002Z,98782.50
2022-07-28T14:57:01.520Z,98792.44
2022-07-28T15:02:05.250Z,98806.72
2022-07-28T15:07:10.288Z,98809.66
2022-07-28T15:12:15.441Z,98793.94
2022-07-28T15:17:19.759Z,98787.00
2022-07-28T15:22:26.446Z,98805.88
2022-07-28T15:27:33.648Z,98818.19
2022-07-28T15:32:47.492Z,98822.72
2022-07-28T15:38:01.183Z,98817.59
2022-07-28T15:43:04.663Z,98813.91
2022-07-28T15:48:09.040Z,98809.81
2022-07-28T15:53:13.786Z,98826.91
2022-07-28T15:58:17.174Z,98839.66
2022-07-28T16:03:22.763Z,98853.16
2022-07-28T16:08:28.363Z,98842.81
2022-07-28T16:13:36.840Z,98848.91
2022-07-28T16:18:44.054Z,98854.69
2022-07-28T16:23:48.808Z,98851.56
2022-07-28T16:28:52.182Z,98859.25
2022-07-28T16:33:56.905Z,98848.84
2022-07-28T16:39:04.246Z,98874.53
2022-07-28T16:44:07.702Z,98886.59
2022-07-28T16:49:11.129Z,98881.38
2022-07-28T16:54:16.227Z,98869.47
2022-07-28T16:59:20.826Z,98891.72
2022-07-28T17:04:24.406Z,98888.69
2022-07-28T17:09:29.142Z,98889.00
2022-07-28T17:14:32.606Z,98898.69
2022-07-28T17:19:39.827Z,98897.28
2022-07-28T17:24:48.480Z,98900.53
2022-07-28T17:29:52.866Z,98903.50
2022-07-28T17:34:56.213Z,98901.34
2022-07-28T17:40:01.198Z,98919.31
2022-07-28T17:45:09.418Z,98918.31
2022-07-28T17:50:13.639Z,98918.09
2022-07-28T17:55:58.030Z,98925.34
2022-07-28T18:01:11.065Z,98933.09
2022-07-28T18:06:15.118Z,98936.56
2022-07-28T18:11:20.187Z,98933.09
2022-07-28T18:16:23.631Z,98933.16
2022-07-28T18:21:27.153Z,98950.69
2022-07-28T18:26:32.234Z,98951.66
2022-07-28T18:31:35.662Z,98951.03
2022-07-28T18:36:39.112Z,98950.34
2022-07-28T18:41:46.029Z,98958.72
2022-07-28T18:46:52.573Z,98964.06
2022-07-28T18:51:56.183Z,98967.75
2022-07-28T18:57:00.971Z,98959.50
2022-07-28T19:02:04.472Z,98966.78
2022-07-28T19:07:07.875Z,98975.34
2022-07-28T19:12:12.893Z,98968.63
2022-07-28T19:17:16.227Z,98967.44
2022-07-28T19:22:19.868Z,98976.69
2022-07-28T19:27:24.654Z,98970.84
2022-07-28T19:32:34.444Z,98982.66
2022-07-28T19:37:39.057Z,98972.97
2022-07-28T19:42:43.813Z,98978.53
2022-07-28T19:47:47.216Z,98978.94
2022-07-28T19:52:53.272Z,98978.22
2022-07-28T19:57:59.385Z,98969.63
2022-07-28T20:03:03.448Z,98971.81
2022-07-28T20:08:06.897Z,98976.75
2022-07-28T20:13:11.977Z,98981.25
2022-07-28T20:18:17.242Z,98943.75
2022-07-28T20:23:20.622Z,98987.38
2022-07-28T20:28:25.424Z,98994.34
2022-07-28T20:33:30.092Z,98995.47
2022-07-28T20:38:33.408Z,98998.16
2022-07-28T20:43:38.647Z,99007.50
2022-07-28T20:48:42.087Z,99010.69
2022-07-28T20:53:45.389Z,99006.59
2022-07-28T20:58:50.178Z,99011.41
2022-07-28T21:03:53.457Z,99013.13
2022-07-28T21:08:59.974Z,99020.97
2022-07-28T21:14:05.032Z,99039.09
2022-07-28T21:19:08.805Z,99028.47
2022-07-28T21:24:12.423Z,99035.47
2022-07-28T21:34:20.303Z,99047.50
2022-07-28T21:39:23.644Z,99053.66
2022-07-28T21:44:28.505Z,99052.97
2022-07-28T21:49:32.499Z,99053.50
2022-07-28T21:54:36.711Z,99063.00
2022-07-28T21:59:41.445Z,99074.09
2022-07-28T22:04:44.779Z,99071.69
2022-07-28T22:09:48.127Z,99071.94
2022-07-28T22:14:52.972Z,99072.78
2022-07-28T22:19:56.350Z,99070.56
2022-07-28T22:24:59.816Z,99078.88
2022-07-28T22:30:05.391Z,99085.00
2022-07-28T22:35:10.803Z,99093.13
2022-07-28T22:40:16.205Z,99091.00
2022-07-28T22:45:50.619Z,99102.47
2022-07-28T22:50:44.638Z,99102.97
2022-07-28T22:55:49.412Z,99105.66
2022-07-28T23:00:55.029Z,99094.97
2022-07-28T23:06:00.193Z,99101.66
2022-07-28T23:11:03.582Z,99103.91
2022-07-28T23:16:10.493Z,99109.56
2022-07-28T23:21:14.051Z,99111.13
2022-07-28T23:26:17.492Z,99118.53
2022-07-28T23:31:23.036Z,99126.81
2022-07-28T23:36:27.884Z,99128.97
2022-07-28T23:41:31.582Z,99129.22
2022-07-28T23:46:37.117Z,99131.19
2022-07-28T23:51:47.581Z,99126.28
2022-07-28T23:56:55.255Z,99146.56
